Aviation Digital Data Service (ADDS)

Output produced by METARs form (2315 UTC 20 January 2019)
found at http://www.aviationweather.gov/metar/data/
 
Forecast for: KRFD (ROCKFORD , IL, US)
Text: KRFD 202051Z 2021/2118 35010KT P6SM FEW250
Forecast period: 2100 UTC 20 January 2019 to 0000 UTC 21 January 2019
Forecast type: FROM: standard forecast or significant change
Winds: from the N (350 degrees) at 12 MPH (10 knots; 5.1 m/s)
Visibility: 6 or more miles 10+ km)
Ceiling: at least 12,000 feet AGL
Clouds: few clouds at 25000 feet AGL
Weather: no significant weather forecast for this period
Text: FM210000 01004KT P6SM FEW250
Forecast period: 0000 to 1400 UTC 21 January 2019
Forecast type: FROM: standard forecast or significant change
Winds: from the N (10 degrees) at 5 MPH (4 knots; 2.1 m/s)
Visibility: 6 or more miles 10+ km)
Ceiling: at least 12,000 feet AGL
Clouds: few clouds at 25000 feet AGL
Weather: no significant weather forecast for this period
Text: FM211400 14007KT P6SM BKN200
Forecast period: 1400 to 1800 UTC 21 January 2019
Forecast type: FROM: standard forecast or significant change
Winds: from the SE (140 degrees) at 8 MPH (7 knots; 3.6 m/s)
Visibility: 6 or more miles 10+ km)
Ceiling: 20000 feet AGL
Clouds: broken clouds at 20000 feet AGL
Weather: no significant weather forecast for this period